Carnival Valor — H3VR — position and weather

sailwx.info

Track history (hours):
 
Tides and Currents Weather Stations Pressure Air Temp Water Temp Dewpoint Dewpoint Depression Visibility Wind Speed Wind Dir Waves Ship Positions

Carnival Valor

Last reported at 2016-Feb-08 14:06 UTC. Time now 2016-Feb-11 10:27 UTC.
Position N 20°30' W 086°59'.

Type: Ship. MMSI: 354298000.

Date/timePositionNaut miles runAvg speedWind from/ knotsBaromVisibWave heightAir tempDewpointWater temp
2016-Feb-08 14:06N 20°30' W 086°59'610.4
2016-Feb-08 13:33N 20°35' W 086°57'48016.9
2016-Feb-07 09:05N 25°25' W 080°00'916.4
2016-Feb-07 08:34N 25°34' W 079°60'1615.9
2016-Feb-07 07:34N 25°49' W 079°59'1615.9
2016-Feb-07 06:33N 26°05' W 079°58'1616.4
2016-Feb-07 05:34N 26°22' W 079°57'1716.6
2016-Feb-07 04:34N 26°38' W 079°56'1616.2
2016-Feb-07 03:34N 26°54' W 079°56'361 8.9
2016-Feb-05 11:00N 24°00' W 074°06'30012.5 040 / 121018.010.8 1.024.013.926.0
2016-Feb-04 11:00N 21°06' W 069°42'25712.3 050 / 301018.010.8 1.528.010.527.0
2016-Feb-03 14:05N 18°28' W 066°07'0 0.0
2016-Feb-03 13:07N 18°28' W 066°07'0 0.3
2016-Feb-03 12:33N 18°28' W 066°07'  
2016-Jan-31 10:00N 26°24' W 076°30'183 6.7 100 / 131021.010.8 1.022.0 6.424.0
2016-Jan-30 06:28N 27°12' W 079°48'1920.3
2016-Jan-30 05:33N 26°53' W 079°45'2322.6
2016-Jan-30 04:33N 26°31' W 079°46'2322.9
2016-Jan-30 03:34N 26°08' W 079°47'2322.5
2016-Jan-30 02:34N 25°45' W 079°47'2322.6
2016-Jan-30 01:34N 25°23' W 079°47'  
Track history (hours):
 
Tides and Currents Weather Stations Pressure Air Temp Water Temp Dewpoint Dewpoint Depression Visibility Wind Speed Wind Dir Waves Ship Positions

Carnival Valor

Last reported at 2016-Feb-08 14:06 UTC. Time now 2016-Feb-11 10:27 UTC.
Position N 20°30' W 086°59'.

Type: Ship. MMSI: 354298000.

Date/timePositionNaut miles runAvg speedWind from/ knotsBaromVisibWave heightAir tempDewpointWater temp
2016-Feb-08 14:06N 20°30' W 086°59'610.4
2016-Feb-08 13:33N 20°35' W 086°57'48016.9
2016-Feb-07 09:05N 25°25' W 080°00'916.4
2016-Feb-07 08:34N 25°34' W 079°60'1615.9
2016-Feb-07 07:34N 25°49' W 079°59'1615.9
2016-Feb-07 06:33N 26°05' W 079°58'1616.4
2016-Feb-07 05:34N 26°22' W 079°57'1716.6
2016-Feb-07 04:34N 26°38' W 079°56'1616.2
2016-Feb-07 03:34N 26°54' W 079°56'361 8.9
2016-Feb-05 11:00N 24°00' W 074°06'30012.5 040 / 121018.010.8 1.024.013.926.0
2016-Feb-04 11:00N 21°06' W 069°42'25712.3 050 / 301018.010.8 1.528.010.527.0
2016-Feb-03 14:05N 18°28' W 066°07'0 0.0
2016-Feb-03 13:07N 18°28' W 066°07'0 0.3
2016-Feb-03 12:33N 18°28' W 066°07'  
2016-Jan-31 10:00N 26°24' W 076°30'183 6.7 100 / 131021.010.8 1.022.0 6.424.0
2016-Jan-30 06:28N 27°12' W 079°48'1920.3
2016-Jan-30 05:33N 26°53' W 079°45'2322.6
2016-Jan-30 04:33N 26°31' W 079°46'2322.9
2016-Jan-30 03:34N 26°08' W 079°47'2322.5
2016-Jan-30 02:34N 25°45' W 079°47'2322.6
2016-Jan-30 01:34N 25°23' W 079°47'  

Dump ship's entire track history